sensor_id;sensor_type;location;lat;lon;timestamp;pressure;altitude;pressure_sealevel;temperature;humidity
20105;BME280;10212;42.714;23.310;2023-02-04T00:05:20;94992.34;;;-0.75;99.53
20105;BME280;10212;42.714;23.310;2023-02-04T00:15:21;94961.84;;;-0.88;100.00
20105;BME280;10212;42.714;23.310;2023-02-04T00:25:21;94964.84;;;-0.73;99.22
20105;BME280;10212;42.714;23.310;2023-02-04T00:35:22;94954.84;;;-0.66;97.90
20105;BME280;10212;42.714;23.310;2023-02-04T00:45:23;94942.72;;;-0.64;97.64
20105;BME280;10212;42.714;23.310;2023-02-04T00:55:23;94935.34;;;-0.87;99.39
20105;BME280;10212;42.714;23.310;2023-02-04T01:05:23;94915.78;;;-0.88;99.01
20105;BME280;10212;42.714;23.310;2023-02-04T01:15:24;94901.75;;;-0.74;97.54
20105;BME280;10212;42.714;23.310;2023-02-04T01:25:24;94875.03;;;-0.52;95.46
20105;BME280;10212;42.714;23.310;2023-02-04T01:35:25;94858.66;;;-0.31;93.19
20105;BME280;10212;42.714;23.310;2023-02-04T01:45:25;94845.75;;;-0.11;92.00
20105;BME280;10212;42.714;23.310;2023-02-04T01:55:28;94834.00;;;0.15;90.68
20105;BME280;10212;42.714;23.310;2023-02-04T02:05:35;94832.00;;;0.37;90.49
20105;BME280;10212;42.714;23.310;2023-02-04T02:15:40;94823.28;;;0.47;89.78
20105;BME280;10212;42.714;23.310;2023-02-04T02:25:41;94817.84;;;0.51;90.36
20105;BME280;10212;42.714;23.310;2023-02-04T02:35:43;94770.03;;;0.50;90.36
20105;BME280;10212;42.714;23.310;2023-02-04T02:45:47;94748.53;;;0.42;90.80
20105;BME280;10212;42.714;23.310;2023-02-04T02:55:48;94732.75;;;0.19;91.46
20105;BME280;10212;42.714;23.310;2023-02-04T03:05:53;94737.81;;;0.29;89.92
20105;BME280;10212;42.714;23.310;2023-02-04T03:15:55;94747.56;;;0.07;90.26
20105;BME280;10212;42.714;23.310;2023-02-04T03:25:55;94723.09;;;-0.06;92.77
20105;BME280;10212;42.714;23.310;2023-02-04T03:35:57;94728.34;;;0.11;91.79
20105;BME280;10212;42.714;23.310;2023-02-04T03:45:57;94706.38;;;0.27;91.37
20105;BME280;10212;42.714;23.310;2023-02-04T03:55:58;94706.72;;;0.50;90.35
20105;BME280;10212;42.714;23.310;2023-02-04T04:05:58;94692.38;;;0.66;89.09
20105;BME280;10212;42.714;23.310;2023-02-04T04:15:58;94674.47;;;0.47;90.01
20105;BME280;10212;42.714;23.310;2023-02-04T04:25:59;94671.06;;;0.39;90.78
20105;BME280;10212;42.714;23.310;2023-02-04T04:35:59;94674.97;;;0.25;92.23
20105;BME280;10212;42.714;23.310;2023-02-04T04:45:59;94687.69;;;0.16;94.42
20105;BME280;10212;42.714;23.310;2023-02-04T04:56:00;94684.16;;;0.35;93.78
20105;BME280;10212;42.714;23.310;2023-02-04T05:06:00;94689.28;;;1.15;91.05
20105;BME280;10212;42.714;23.310;2023-02-04T05:16:00;94706.75;;;1.47;90.62
20105;BME280;10212;42.714;23.310;2023-02-04T05:26:01;94721.28;;;1.64;89.08
20105;BME280;10212;42.714;23.310;2023-02-04T05:36:01;94750.47;;;1.63;87.47
20105;BME280;10212;42.714;23.310;2023-02-04T05:46:02;94735.38;;;1.60;87.93
20105;BME280;10212;42.714;23.310;2023-02-04T05:56:02;94714.72;;;1.35;85.30
20105;BME280;10212;42.714;23.310;2023-02-04T06:06:02;94722.97;;;1.12;86.85
20105;BME280;10212;42.714;23.310;2023-02-04T06:16:03;94754.88;;;1.36;85.44
20105;BME280;10212;42.714;23.310;2023-02-04T06:26:03;94749.41;;;1.74;82.77
20105;BME280;10212;42.714;23.310;2023-02-04T06:36:04;94749.16;;;2.02;80.68
20105;BME280;10212;42.714;23.310;2023-02-04T06:46:06;94754.81;;;2.31;79.81
20105;BME280;10212;42.714;23.310;2023-02-04T06:56:06;94746.44;;;2.96;75.81
20105;BME280;10212;42.714;23.310;2023-02-04T07:06:06;94724.19;;;3.20;72.94
20105;BME280;10212;42.714;23.310;2023-02-04T07:16:07;94721.13;;;3.56;71.56
20105;BME280;10212;42.714;23.310;2023-02-04T07:26:07;94706.56;;;3.32;72.51
20105;BME280;10212;42.714;23.310;2023-02-04T07:36:08;94701.63;;;3.22;72.83
20105;BME280;10212;42.714;23.310;2023-02-04T07:46:08;94696.81;;;3.91;70.39
20105;BME280;10212;42.714;23.310;2023-02-04T07:56:09;94697.31;;;4.33;69.34
20105;BME280;10212;42.714;23.310;2023-02-04T08:06:09;94709.47;;;4.24;68.59
20105;BME280;10212;42.714;23.310;2023-02-04T08:16:10;94710.94;;;3.95;70.33
20105;BME280;10212;42.714;23.310;2023-02-04T08:26:11;94708.19;;;3.73;71.57
20105;BME280;10212;42.714;23.310;2023-02-04T08:36:11;94698.63;;;3.42;74.07
20105;BME280;10212;42.714;23.310;2023-02-04T08:46:11;94685.97;;;3.64;74.00
20105;BME280;10212;42.714;23.310;2023-02-04T08:56:12;94688.59;;;3.55;75.13
20105;BME280;10212;42.714;23.310;2023-02-04T09:06:15;94689.03;;;3.67;75.33
20105;BME280;10212;42.714;23.310;2023-02-04T09:16:16;94684.50;;;3.93;73.37
20105;BME280;10212;42.714;23.310;2023-02-04T09:26:17;94680.63;;;4.20;70.85
20105;BME280;10212;42.714;23.310;2023-02-04T09:36:18;94684.34;;;4.41;70.89
20105;BME280;10212;42.714;23.310;2023-02-04T09:46:23;94683.31;;;3.80;76.44
20105;BME280;10212;42.714;23.310;2023-02-04T09:56:27;94671.59;;;3.37;80.19
20105;BME280;10212;42.714;23.310;2023-02-04T10:06:28;94650.81;;;3.39;81.55
20105;BME280;10212;42.714;23.310;2023-02-04T10:16:32;94634.84;;;3.44;80.44
20105;BME280;10212;42.714;23.310;2023-02-04T10:26:33;94625.50;;;3.43;80.59
20105;BME280;10212;42.714;23.310;2023-02-04T10:36:34;94625.47;;;3.74;80.17
20105;BME280;10212;42.714;23.310;2023-02-04T10:46:34;94619.66;;;3.49;84.80
20105;BME280;10212;42.714;23.310;2023-02-04T10:56:35;94611.44;;;3.54;84.87
20105;BME280;10212;42.714;23.310;2023-02-04T11:06:35;94605.00;;;3.49;84.14
20105;BME280;10212;42.714;23.310;2023-02-04T11:16:46;94585.31;;;3.80;83.90
20105;BME280;10212;42.714;23.310;2023-02-04T11:26:49;94592.97;;;3.89;82.88
20105;BME280;10212;42.714;23.310;2023-02-04T11:37:03;94588.28;;;3.69;84.07
20105;BME280;10212;42.714;23.310;2023-02-04T11:47:06;94591.31;;;3.49;84.82
20105;BME280;10212;42.714;23.310;2023-02-04T11:57:10;94589.50;;;3.96;84.36
20105;BME280;10212;42.714;23.310;2023-02-04T12:07:11;94589.94;;;3.61;84.99
20105;BME280;10212;42.714;23.310;2023-02-04T12:17:16;94582.78;;;3.17;88.45
20105;BME280;10212;42.714;23.310;2023-02-04T12:27:17;94578.22;;;2.95;89.72
20105;BME280;10212;42.714;23.310;2023-02-04T12:37:18;94567.78;;;2.88;90.10
20105;BME280;10212;42.714;23.310;2023-02-04T12:47:19;94567.94;;;3.27;88.30
20105;BME280;10212;42.714;23.310;2023-02-04T12:57:19;94571.31;;;3.51;86.00
20105;BME280;10212;42.714;23.310;2023-02-04T13:07:19;94573.38;;;3.56;84.73
20105;BME280;10212;42.714;23.310;2023-02-04T13:17:20;94571.66;;;3.48;83.27
20105;BME280;10212;42.714;23.310;2023-02-04T13:27:21;94593.00;;;3.01;83.81
20105;BME280;10212;42.714;23.310;2023-02-04T13:37:21;94601.25;;;2.88;85.12
20105;BME280;10212;42.714;23.310;2023-02-04T13:47:22;94605.97;;;2.76;85.67
20105;BME280;10212;42.714;23.310;2023-02-04T13:57:22;94608.28;;;2.55;87.27
20105;BME280;10212;42.714;23.310;2023-02-04T14:07:23;94615.84;;;2.56;87.48
20105;BME280;10212;42.714;23.310;2023-02-04T14:17:23;94636.44;;;2.56;85.58
20105;BME280;10212;42.714;23.310;2023-02-04T14:27:24;94655.41;;;2.55;86.36
20105;BME280;10212;42.714;23.310;2023-02-04T14:37:24;94691.69;;;1.68;90.23
20105;BME280;10212;42.714;23.310;2023-02-04T14:47:27;94671.13;;;1.52;89.07
20105;BME280;10212;42.714;23.310;2023-02-04T14:57:27;94682.38;;;1.59;85.72
20105;BME280;10212;42.714;23.310;2023-02-04T15:07:28;94694.91;;;1.62;84.71
20105;BME280;10212;42.714;23.310;2023-02-04T15:17:28;94691.69;;;1.60;82.61
20105;BME280;10212;42.714;23.310;2023-02-04T15:27:29;94700.31;;;1.51;81.70
20105;BME280;10212;42.714;23.310;2023-02-04T15:37:29;94725.88;;;1.17;82.61
20105;BME280;10212;42.714;23.310;2023-02-04T15:47:30;94744.56;;;0.75;83.46
20105;BME280;10212;42.714;23.310;2023-02-04T15:57:30;94768.84;;;0.62;81.11
20105;BME280;10212;42.714;23.310;2023-02-04T16:07:31;94766.75;;;0.57;80.28
20105;BME280;10212;42.714;23.310;2023-02-04T16:17:31;94800.63;;;0.43;79.01
20105;BME280;10212;42.714;23.310;2023-02-04T16:27:32;94832.34;;;0.23;78.93
20105;BME280;10212;42.714;23.310;2023-02-04T16:37:33;94847.81;;;0.04;78.17
20105;BME280;10212;42.714;23.310;2023-02-04T16:47:34;94846.00;;;-0.04;78.66
20105;BME280;10212;42.714;23.310;2023-02-04T16:57:34;94848.72;;;-0.16;79.08
20105;BME280;10212;42.714;23.310;2023-02-04T17:07:35;94857.69;;;-0.30;80.23
20105;BME280;10212;42.714;23.310;2023-02-04T17:17:35;94872.81;;;-0.27;80.02
20105;BME280;10212;42.714;23.310;2023-02-04T17:27:35;94874.03;;;-0.31;80.46
20105;BME280;10212;42.714;23.310;2023-02-04T17:37:37;94885.88;;;-0.30;80.43
20105;BME280;10212;42.714;23.310;2023-02-04T17:47:37;94903.88;;;-0.50;80.18
20105;BME280;10212;42.714;23.310;2023-02-04T17:57:38;94895.78;;;-0.45;80.16
20105;BME280;10212;42.714;23.310;2023-02-04T18:07:42;94922.22;;;-0.44;79.64
20105;BME280;10212;42.714;23.310;2023-02-04T18:17:44;94942.16;;;-0.38;80.36
20105;BME280;10212;42.714;23.310;2023-02-04T18:27:44;94945.09;;;-0.33;79.55
20105;BME280;10212;42.714;23.310;2023-02-04T18:37:47;94943.50;;;-0.44;79.78
20105;BME280;10212;42.714;23.310;2023-02-04T18:47:48;94945.00;;;-0.41;79.22
20105;BME280;10212;42.714;23.310;2023-02-04T18:57:49;94929.75;;;-0.53;80.12
20105;BME280;10212;42.714;23.310;2023-02-04T19:07:53;94935.16;;;-0.56;80.66
20105;BME280;10212;42.714;23.310;2023-02-04T19:17:57;94938.13;;;-0.70;82.43
20105;BME280;10212;42.714;23.310;2023-02-04T19:28:13;94955.38;;;-0.73;81.98
20105;BME280;10212;42.714;23.310;2023-02-04T19:38:35;94967.53;;;-0.94;84.37
20105;BME280;10212;42.714;23.310;2023-02-04T19:48:37;94966.19;;;-1.08;86.86
20105;BME280;10212;42.714;23.310;2023-02-04T19:58:41;94983.31;;;-0.99;87.47
20105;BME280;10212;42.714;23.310;2023-02-04T20:19:01;95001.94;;;-1.38;93.04
20105;BME280;10212;42.714;23.310;2023-02-04T20:29:22;95011.84;;;-1.55;90.95
20105;BME280;10212;42.714;23.310;2023-02-04T20:39:37;95031.75;;;-1.90;87.43
20105;BME280;10212;42.714;23.310;2023-02-04T20:49:39;95051.69;;;-2.05;85.93
20105;BME280;10212;42.714;23.310;2023-02-04T20:59:40;95061.69;;;-2.02;83.61
20105;BME280;10212;42.714;23.310;2023-02-04T21:09:42;95053.69;;;-2.09;81.77
20105;BME280;10212;42.714;23.310;2023-02-04T21:19:42;95073.00;;;-2.37;80.32
20105;BME280;10212;42.714;23.310;2023-02-04T21:29:44;95074.47;;;-2.56;81.45
20105;BME280;10212;42.714;23.310;2023-02-04T21:39:44;95088.75;;;-2.53;80.48
20105;BME280;10212;42.714;23.310;2023-02-04T21:49:44;95108.22;;;-2.52;78.31
20105;BME280;10212;42.714;23.310;2023-02-04T21:59:45;95105.78;;;-2.54;77.34
20105;BME280;10212;42.714;23.310;2023-02-04T22:09:47;95121.38;;;-2.69;78.59
20105;BME280;10212;42.714;23.310;2023-02-04T22:19:49;95119.56;;;-2.89;80.34
20105;BME280;10212;42.714;23.310;2023-02-04T22:29:49;95147.44;;;-3.21;85.04
20105;BME280;10212;42.714;23.310;2023-02-04T22:39:50;95146.94;;;-3.15;83.95
20105;BME280;10212;42.714;23.310;2023-02-04T22:49:50;95157.72;;;-3.11;79.32
20105;BME280;10212;42.714;23.310;2023-02-04T22:59:51;95177.09;;;-3.31;79.67
20105;BME280;10212;42.714;23.310;2023-02-04T23:09:51;95197.00;;;-3.48;80.19
20105;BME280;10212;42.714;23.310;2023-02-04T23:19:52;95196.94;;;-3.71;83.79
20105;BME280;10212;42.714;23.310;2023-02-04T23:29:52;95202.44;;;-3.89;83.89
20105;BME280;10212;42.714;23.310;2023-02-04T23:39:52;95221.28;;;-4.03;88.53
20105;BME280;10212;42.714;23.310;2023-02-04T23:49:53;95247.72;;;-4.17;90.90
20105;BME280;10212;42.714;23.310;2023-02-04T23:59:53;95240.78;;;-4.15;89.37
